Time;durP1;ratioP1;P1;durP2;ratioP2;P2;SDS_P1;SDS_P2;PMS_P1;PMS_P2;Temp;Humidity;BMP_temperature;BMP_pressure;BME280_temperature;BME280_humidity;BME280_pressure;Samples;Min_cycle;Max_cycle;Signal;HPM_P1;HPM_P2
2021/04/02 00:01:16;;;;;;;13.65;3.28;;;12.90;69.70;;;11.60;65.23;96010.13;4967219;28;20122;-70
2021/04/02 00:03:42;;;;;;;6.72;2.90;;;12.90;69.60;;;11.59;65.17;96008.50;4966812;28;20096;-70
2021/04/02 00:06:09;;;;;;;9.48;3.58;;;12.80;69.60;;;11.54;65.27;96008.28;4976000;28;20030;-70
2021/04/02 00:08:35;;;;;;;8.23;3.45;;;12.80;69.90;;;11.54;66.27;96007.44;4959732;28;20065;-71
2021/04/02 00:11:06;;;;;;;13.77;3.75;;;12.80;69.80;;;11.47;67.48;96004.81;4971338;28;20063;-71
2021/04/02 00:13:36;;;;;;;;;;;12.60;70.70;;;11.41;68.61;96004.78;4984408;28;20463;-70
2021/04/02 00:16:02;;;;;;;11.52;3.60;;;12.60;70.70;;;11.35;65.66;96006.38;4964367;28;19928;-71
2021/04/02 00:18:28;;;;;;;13.90;4.05;;;12.60;70.80;;;11.31;66.59;96005.13;4964244;28;20058;-71
2021/04/02 00:20:55;;;;;;;11.07;3.50;;;12.40;70.90;;;11.24;66.84;96004.28;4970412;28;20493;-71
2021/04/02 00:23:21;;;;;;;9.52;3.53;;;12.40;71.20;;;11.19;66.32;96011.97;4970465;23;20463;-66
2021/04/02 00:25:47;;;;;;;7.55;3.42;;;12.30;71.50;;;11.15;67.13;96008.09;4978117;28;20068;-66
2021/04/02 00:28:13;;;;;;;11.93;3.88;;;12.30;71.70;;;11.11;65.95;96004.25;4950999;28;20113;-66
2021/04/02 00:30:47;;;;;;;9.65;3.50;;;12.30;71.50;;;11.08;68.22;95999.34;4943432;28;20030;-66
2021/04/02 00:33:13;;;;;;;13.07;3.83;;;12.30;71.30;;;11.05;67.06;96000.53;4950451;28;20039;-66
2021/04/02 00:35:38;;;;;;;8.23;3.35;;;12.30;71.30;;;11.03;66.67;95998.09;4962855;28;20030;-66
2021/04/02 00:38:05;;;;;;;8.90;3.85;;;12.30;71.30;;;11.02;66.46;95991.22;4968415;28;20027;-66
2021/04/02 00:40:33;;;;;;;8.27;4.00;;;12.30;71.20;;;11.00;67.39;95993.22;4962611;28;20031;-66
2021/04/02 00:42:59;;;;;;;11.00;4.43;;;12.20;71.10;;;10.97;67.25;95993.63;4958465;28;20110;-66
2021/04/02 00:45:25;;;;;;;10.38;3.60;;;12.30;71.20;;;10.95;67.02;95986.94;4953336;28;20410;-66
2021/04/02 00:47:52;;;;;;;8.43;3.55;;;12.20;71.30;;;10.93;67.21;95987.13;4961860;28;20042;-66
2021/04/02 00:50:40;;;;;;;10.82;3.97;;;12.30;71.10;;;10.91;68.39;95980.44;4962972;28;20038;-66
2021/04/02 00:53:06;;;;;;;7.80;3.50;;;12.20;70.80;;;10.88;66.71;95988.72;4965015;28;20530;-66
2021/04/02 00:55:32;;;;;;;12.48;4.38;;;12.20;70.50;;;10.85;67.78;95984.63;4962312;28;20118;-66
2021/04/02 00:57:58;;;;;;;8.35;4.05;;;12.20;70.40;;;10.86;66.94;95977.53;4935890;28;20031;-66
2021/04/02 01:00:25;;;;;;;10.82;3.92;;;12.20;70.50;;;10.84;66.90;95977.75;4965805;28;20031;-66
2021/04/02 01:02:51;;;;;;;10.57;3.88;;;12.20;70.20;;;10.81;67.26;95978.13;4953657;28;20027;-66
2021/04/02 01:05:21;;;;;;;7.35;3.65;;;12.10;70.20;;;10.81;67.90;95972.06;4937717;28;20572;-66
2021/04/02 01:07:57;;;;;;;10.75;4.05;;;12.20;70.10;;;10.78;69.11;95977.72;4952563;28;20131;-66
2021/04/02 01:10:23;;;;;;;9.18;4.00;;;12.10;70.10;;;10.74;67.30;95977.28;4986106;28;20089;-66
2021/04/02 01:13:06;;;;;;;10.57;4.07;;;12.10;70.10;;;10.72;68.56;95980.13;4969153;28;20042;-66
2021/04/02 01:15:52;;;;;;;9.77;4.10;;;12.10;70.20;;;10.72;69.15;95987.19;4954263;28;20114;-66
2021/04/02 01:18:25;;;;;;;9.77;4.45;;;12.10;70.30;;;10.66;68.43;95977.44;4973485;28;20042;-66
2021/04/02 01:20:51;;;;;;;8.57;4.07;;;12.00;70.70;;;10.65;66.99;95987.16;4941424;28;20039;-65
2021/04/02 01:23:19;;;;;;;10.13;4.55;;;12.00;70.90;;;10.62;67.45;95984.88;4945587;28;641054;-66
2021/04/02 01:26:12;;;;;;;9.73;4.47;;;11.90;70.90;;;10.60;68.53;95996.59;4949399;28;20038;-66
2021/04/02 01:28:57;;;;;;;11.43;5.28;;;11.90;71.00;;;10.54;69.03;95992.94;4982568;28;20043;-65
2021/04/02 01:31:23;;;;;;;11.43;5.85;;;11.80;70.90;;;10.48;67.75;95992.88;4960540;28;20042;-66
2021/04/02 01:33:51;;;;;;;14.25;6.55;;;11.70;70.90;;;10.43;67.40;95996.91;4955305;28;20045;-66
2021/04/02 01:36:17;;;;;;;13.50;6.10;;;11.70;70.90;;;10.36;67.92;95990.75;4973472;28;20042;-67
2021/04/02 01:38:43;;;;;;;14.18;5.68;;;11.60;71.30;;;10.31;68.09;95998.41;4947858;28;20039;-66
2021/04/02 01:41:10;;;;;;;13.20;5.22;;;11.60;71.30;;;10.29;68.46;95995.16;4954478;28;20515;-66
2021/04/02 01:43:44;;;;;;;11.20;5.05;;;11.60;71.30;;;10.25;68.81;95996.53;4978549;28;20538;-65
2021/04/02 01:46:10;;;;;;;9.65;5.13;;;11.60;71.40;;;10.21;67.64;95992.69;4939848;28;20428;-66
2021/04/02 01:48:37;;;;;;;12.90;5.93;;;11.50;71.50;;;10.20;67.87;95996.28;4948230;28;20035;-66
2021/04/02 01:51:03;;;;;;;9.70;5.20;;;11.50;71.50;;;10.18;67.38;95993.00;4960785;28;20309;-67
2021/04/02 01:53:34;;;;;;;12.15;5.93;;;11.50;71.50;;;10.14;68.57;95989.13;4953947;28;20038;-66
2021/04/02 01:56:00;;;;;;;10.60;6.03;;;11.50;71.70;;;10.10;67.81;95990.50;4939843;28;20068;-66
2021/04/02 01:58:26;;;;;;;12.23;6.13;;;11.40;71.90;;;10.07;67.57;95990.88;4953839;28;20070;-65
2021/04/02 02:00:57;;;;;;;11.52;6.57;;;11.40;71.70;;;10.07;68.94;95996.16;4957541;28;20069;-66
2021/04/02 02:03:23;;;;;;;20.25;7.53;;;11.40;71.70;;;10.05;68.12;95992.88;4953511;28;20676;-65
2021/04/02 02:05:50;;;;;;;15.85;6.93;;;11.40;71.30;;;10.01;68.49;95989.81;4942504;28;20035;-65
2021/04/02 02:08:16;;;;;;;13.02;7.35;;;11.40;71.10;;;9.97;67.61;95991.22;4956753;28;20022;-65
2021/04/02 02:10:43;;;;;;;15.45;6.88;;;11.40;70.90;;;9.95;68.24;95992.38;4956474;28;20038;-65
2021/04/02 02:13:09;;;;;;;24.02;7.65;;;11.30;70.80;;;9.93;67.89;95994.38;4941391;28;20031;-67
2021/04/02 02:15:38;;;;;;;16.52;7.57;;;11.30;70.70;;;9.90;69.20;96002.63;4953001;28;20034;-66
2021/04/02 02:18:11;;;;;;;15.65;7.88;;;11.20;71.00;;;9.84;69.55;95998.94;4977413;28;20584;-66
2021/04/02 02:20:39;;;;;;;16.55;7.75;;;11.10;71.30;;;9.79;68.28;95994.25;4946064;28;20053;-66
2021/04/02 02:23:05;;;;;;;21.38;9.07;;;11.10;71.50;;;9.75;68.48;95998.25;4974385;28;20023;-66
2021/04/02 02:25:32;;;;;;;15.27;8.20;;;11.10;71.40;;;9.71;67.77;95996.97;4972526;28;20030;-66
2021/04/02 02:27:57;;;;;;;15.65;7.93;;;11.10;71.30;;;9.69;68.41;96006.88;4952220;28;20039;-66
2021/04/02 02:30:29;;;;;;;18.77;8.93;;;11.10;71.30;;;9.66;69.30;96004.63;4969434;28;20042;-66
2021/04/02 02:32:55;;;;;;;20.02;8.82;;;11.00;71.40;;;9.66;68.24;96012.50;4974272;28;20092;-66
2021/04/02 02:35:21;;;;;;;20.55;8.80;;;11.10;71.40;;;9.61;68.56;96009.63;4947782;28;20031;-66
2021/04/02 02:37:47;;;;;;;19.33;9.13;;;11.00;71.40;;;9.57;68.63;96011.00;4955958;28;20105;-66
2021/04/02 02:40:19;;;;;;;18.92;9.20;;;11.00;71.30;;;9.54;69.84;96010.53;4949939;28;20375;-66
2021/04/02 02:42:45;;;;;;;17.08;9.02;;;10.90;71.60;;;9.53;68.54;96014.97;4955512;28;20039;-66
2021/04/02 02:45:12;;;;;;;15.10;9.18;;;10.90;71.60;;;9.48;68.72;96010.25;4956761;28;20410;-66
2021/04/02 02:47:39;;;;;;;19.38;9.00;;;10.80;71.80;;;9.47;68.41;96005.19;4925032;28;20045;-66
2021/04/02 02:50:08;;;;;;;20.00;10.25;;;10.80;71.80;;;9.44;69.33;96010.81;4953457;28;20407;-66
2021/04/02 02:52:34;;;;;;;19.13;9.85;;;10.80;71.80;;;9.41;68.73;96005.94;4948498;28;20105;-66
2021/04/02 02:55:00;;;;;;;17.13;8.88;;;10.80;71.80;;;9.38;68.89;96011.56;4970146;28;20410;-66
2021/04/02 02:57:26;;;;;;;17.58;9.43;;;10.80;71.80;;;9.35;68.89;96002.25;4940291;28;20062;-66
2021/04/02 02:59:52;;;;;;;19.10;10.30;;;10.70;71.80;;;9.33;68.46;96009.50;4968067;28;20062;-65
2021/04/02 03:02:18;;;;;;;18.05;9.82;;;10.80;71.60;;;9.32;69.20;96010.50;4979325;28;20089;-66
2021/04/02 03:04:44;;;;;;;22.33;10.60;;;10.70;71.50;;;9.32;68.36;96012.31;4933214;29;20035;-65
2021/04/02 03:07:10;;;;;;;21.58;12.02;;;10.80;71.50;;;9.32;68.59;96012.31;4950228;28;20126;-66
2021/04/02 03:09:37;;;;;;;21.33;11.80;;;10.70;71.30;;;9.28;68.37;96011.84;4955475;28;20039;-66
2021/04/02 03:12:03;;;;;;;22.20;11.30;;;10.70;71.40;;;9.26;68.86;96026.13;4968237;28;20077;-66
2021/04/02 03:14:29;;;;;;;23.05;11.93;;;10.60;71.40;;;9.24;68.57;96025.50;4970337;28;20038;-66
2021/04/02 03:16:54;;;;;;;21.58;11.82;;;10.70;71.40;;;9.23;68.52;96023.88;4957116;28;20035;-66
2021/04/02 03:19:22;;;;;;;19.23;11.55;;;10.60;71.30;;;9.19;69.20;96024.25;4969076;28;20119;-66
2021/04/02 03:21:48;;;;;;;23.40;12.23;;;10.60;71.40;;;9.15;68.52;96022.97;4966891;28;20470;-66
2021/04/02 03:24:15;;;;;;;25.05;12.55;;;10.60;71.50;;;9.11;68.83;96032.22;4981595;28;20034;-66
2021/04/02 03:26:42;;;;;;;23.73;11.98;;;10.50;71.60;;;9.09;69.47;96026.34;4939726;29;20049;-66
2021/04/02 03:29:10;;;;;;;24.77;14.48;;;10.50;71.60;;;9.07;69.11;96030.97;4948568;29;20035;-66
2021/04/02 03:31:36;;;;;;;32.30;17.85;;;10.50;71.60;;;9.08;69.08;96037.03;4950097;28;20030;-66
2021/04/02 03:34:02;;;;;;;35.45;17.83;;;10.50;71.30;;;9.05;68.41;96029.47;4951720;28;20027;-66
2021/04/02 03:36:28;;;;;;;36.63;20.17;;;10.50;71.20;;;9.03;69.04;96029.66;4979902;28;20430;-66
2021/04/02 03:38:54;;;;;;;39.47;22.58;;;10.50;71.10;;;9.01;68.66;96029.03;4950127;28;20483;-66
2021/04/02 03:41:24;;;;;;;39.72;22.95;;;10.50;70.90;;;8.99;69.23;96038.91;4949358;28;20039;-66
2021/04/02 03:43:50;;;;;;;39.72;22.67;;;10.50;70.90;;;8.96;68.74;96036.63;4970482;28;20117;-66
2021/04/02 03:46:17;;;;;;;41.83;23.80;;;10.40;71.00;;;8.95;68.80;96037.63;4951525;28;20441;-66
2021/04/02 03:48:42;;;;;;;40.13;22.50;;;10.40;70.80;;;8.95;68.32;96042.88;4944099;28;20053;-66
2021/04/02 03:51:09;;;;;;;44.10;24.20;;;10.40;70.70;;;8.94;68.38;96036.00;4927127;28;20031;-66
2021/04/02 03:53:41;;;;;;;45.80;23.77;;;10.30;70.80;;;8.93;69.56;96036.19;4948878;28;20363;-66
2021/04/02 03:56:10;;;;;;;45.00;24.48;;;10.40;70.90;;;8.88;68.85;96041.97;4967035;28;20046;-66
2021/04/02 03:58:36;;;;;;;42.72;23.83;;;10.30;70.80;;;8.84;68.77;96040.72;4938667;28;20448;-66
2021/04/02 04:01:11;;;;;;;40.50;23.00;;;10.30;70.80;;;8.81;69.36;96041.88;4974895;28;20115;-66
2021/04/02 04:03:38;;;;;;;44.08;23.23;;;10.30;70.80;;;8.81;69.01;96048.91;4945248;28;20381;-65
2021/04/02 04:06:05;;;;;;;41.90;21.90;;;10.30;70.80;;;8.76;68.65;96049.47;4981480;28;20038;-66
2021/04/02 04:08:30;;;;;;;38.35;21.05;;;10.20;70.70;;;8.74;68.77;96048.00;4934810;28;20039;-66
2021/04/02 04:10:56;;;;;;;36.65;20.90;;;10.20;70.70;;;8.70;68.86;96041.50;4951438;28;20054;-66
2021/04/02 04:13:22;;;;;;;39.78;21.88;;;10.10;71.00;;;8.68;68.21;96041.69;4956429;28;20059;-66
2021/04/02 04:15:48;;;;;;;35.17;20.73;;;10.10;71.10;;;8.64;68.47;96047.47;4976631;28;20521;-67
2021/04/02 04:18:14;;;;;;;37.45;21.52;;;10.10;71.00;;;8.61;68.38;96055.69;4950197;28;20030;-66
2021/04/02 04:20:41;;;;;;;36.47;19.58;;;10.10;71.00;;;8.57;68.53;96048.16;4960086;28;20073;-67
2021/04/02 04:23:07;;;;;;;32.55;19.42;;;10.10;71.00;;;8.56;68.99;96057.00;4964371;28;20041;-66
2021/04/02 04:25:33;;;;;;;39.75;19.95;;;10.00;71.00;;;8.54;69.01;96048.50;4985741;28;20079;-66
2021/04/02 04:27:58;;;;;;;38.20;20.35;;;10.00;71.10;;;8.50;68.21;96049.84;4958849;28;20034;-66
2021/04/02 04:30:25;;;;;;;38.28;21.65;;;9.90;71.10;;;8.47;68.59;96049.41;4952040;28;20121;-67
2021/04/02 04:32:51;;;;;;;38.13;21.02;;;9.90;71.20;;;8.43;68.75;96054.19;4969788;28;20038;-66
2021/04/02 04:35:17;;;;;;;36.40;20.45;;;9.80;71.30;;;8.39;69.13;96047.69;4958399;28;20041;-66
2021/04/02 04:37:44;;;;;;;39.97;21.90;;;9.80;71.40;;;8.36;69.14;96053.25;4968982;28;20037;-66
2021/04/02 04:40:19;;;;;;;46.78;22.17;;;9.80;71.40;;;8.34;70.11;96049.97;4953749;28;20502;-67
2021/04/02 04:42:46;;;;;;;44.70;24.50;;;9.80;71.40;;;8.32;69.38;96051.13;4937093;28;20042;-67
2021/04/02 04:45:13;;;;;;;46.45;24.05;;;9.70;71.60;;;8.28;68.84;96046.25;4951372;28;20035;-67
2021/04/02 04:47:39;;;;;;;44.03;24.13;;;9.70;71.60;;;8.26;68.73;96047.41;4951366;28;20134;-66
2021/04/02 04:50:06;;;;;;;44.88;24.45;;;9.70;71.60;;;8.23;69.19;96045.97;4967914;28;20030;-66
2021/04/02 04:52:32;;;;;;;45.35;24.48;;;9.60;71.70;;;8.19;69.19;96056.97;4938743;28;20060;-67
2021/04/02 04:54:59;;;;;;;43.35;24.10;;;9.60;71.90;;;8.15;68.78;96059.13;4950433;28;20445;-66
2021/04/02 04:57:24;;;;;;;46.25;25.23;;;9.60;71.90;;;8.14;69.26;96064.50;4934351;28;20031;-66
2021/04/02 04:59:51;;;;;;;47.08;25.60;;;9.60;72.10;;;8.12;69.59;96067.31;4969469;28;20085;-66
2021/04/02 05:02:18;;;;;;;46.40;26.65;;;9.60;72.10;;;8.10;69.65;96073.72;4958359;28;20030;-67
2021/04/02 05:04:43;;;;;;;60.05;36.78;;;9.60;72.00;;;8.10;69.50;96071.09;4962373;28;20674;-66
2021/04/02 05:07:09;;;;;;;64.78;34.70;;;9.60;72.70;;;8.07;69.56;96074.06;4978496;28;20050;-67
2021/04/02 05:09:35;;;;;;;71.15;43.90;;;9.60;72.30;;;8.07;69.80;96074.88;4966077;28;20027;-67
2021/04/02 05:12:01;;;;;;;67.47;40.60;;;9.70;72.60;;;8.08;70.07;96076.50;4969293;28;20053;-67
2021/04/02 05:14:26;;;;;;;67.78;42.97;;;9.70;72.20;;;8.09;70.19;96082.56;4932485;28;20038;-67
2021/04/02 05:16:52;;;;;;;71.78;41.92;;;9.70;71.90;;;8.10;69.73;96085.00;4932140;28;20070;-66
2021/04/02 05:19:19;;;;;;;82.65;48.13;;;9.70;71.70;;;8.12;69.80;96090.06;4950011;28;20671;-67
2021/04/02 05:21:45;;;;;;;58.88;36.05;;;9.80;71.80;;;8.14;70.36;96095.94;4945900;28;20689;-68
2021/04/02 05:24:11;;;;;;;63.63;37.20;;;9.80;71.60;;;8.17;70.15;96090.41;4946798;28;20454;-67
2021/04/02 05:26:37;;;;;;;60.83;36.35;;;9.80;71.50;;;8.18;69.96;96094.66;4949993;28;20043;-67
2021/04/02 05:29:03;;;;;;;56.22;35.28;;;9.80;71.70;;;8.21;70.23;96100.34;4950189;28;20054;-68
2021/04/02 05:31:29;;;;;;;56.53;33.17;;;9.90;71.80;;;8.23;69.55;96100.16;4964659;28;20510;-67
2021/04/02 05:33:55;;;;;;;59.45;33.65;;;9.90;71.90;;;8.27;69.82;96101.44;4964919;28;20062;-68
2021/04/02 05:36:21;;;;;;;56.75;33.83;;;9.90;71.80;;;8.31;69.97;96107.97;4933440;28;20125;-67
2021/04/02 05:38:46;;;;;;;59.88;35.42;;;10.00;71.60;;;8.35;69.78;96109.28;4956672;28;20491;-67
2021/04/02 05:41:13;;;;;;;59.30;33.90;;;10.00;71.40;;;8.38;69.92;96108.13;4967838;28;20062;-66
2021/04/02 05:43:54;;;;;;;53.13;31.83;;;10.10;71.40;;;8.43;70.80;96111.03;4945205;28;20034;-66
2021/04/02 05:46:19;;;;;;;59.75;32.78;;;10.10;71.20;;;8.45;70.06;96109.88;4952184;28;20039;-66
2021/04/02 05:48:45;;;;;;;54.70;33.00;;;10.20;70.80;;;8.50;69.56;96117.19;4952627;28;20042;-66
2021/04/02 05:51:11;;;;;;;67.80;42.13;;;10.20;70.50;;;8.53;69.48;96120.28;4935690;28;20042;-66
2021/04/02 05:53:38;;;;;;;60.38;37.05;;;10.20;70.60;;;8.55;69.64;96113.06;4949114;28;20042;-66
2021/04/02 05:56:04;;;;;;;52.15;33.58;;;10.40;70.50;;;8.63;69.55;96129.75;4955955;28;20379;-67
2021/04/02 05:58:30;;;;;;;53.33;34.13;;;10.40;70.10;;;8.67;69.87;96123.16;4957818;28;20042;-66
2021/04/02 06:00:55;;;;;;;52.92;32.30;;;10.40;70.00;;;8.72;69.66;96126.03;4970403;28;20027;-67
2021/04/02 06:03:21;;;;;;;53.92;32.63;;;10.50;69.90;;;8.78;69.32;96126.16;4953132;28;20169;-67
2021/04/02 06:05:47;;;;;;;46.58;31.42;;;10.50;69.80;;;8.83;69.28;96125.63;4969828;28;20072;-67
2021/04/02 06:08:13;;;;;;;57.08;33.28;;;10.60;69.70;;;8.90;69.66;96135.25;4971049;28;20046;-67
2021/04/02 06:10:38;;;;;;;59.70;35.28;;;10.60;69.80;;;8.95;69.39;96142.56;4960540;28;20746;-66
2021/04/02 06:13:04;;;;;;;49.53;32.13;;;10.70;69.60;;;9.00;69.09;96134.97;4962535;28;20125;-67
2021/04/02 06:15:32;;;;;;;50.33;31.67;;;10.80;69.70;;;9.06;69.13;96139.53;4955740;28;20038;-67
2021/04/02 06:18:03;;;;;;;50.97;31.77;;;10.90;69.60;;;9.13;70.12;96135.19;4963288;28;20112;-67
2021/04/02 06:20:38;;;;;;;48.65;30.02;;;10.90;69.40;;;9.20;69.94;96135.28;4971799;28;20059;-68
2021/04/02 06:23:16;;;;;;;46.22;30.17;;;11.00;69.40;;;9.27;70.00;96136.19;4934505;29;20059;-68
2021/04/02 06:25:51;;;;;;;48.60;30.63;;;11.10;69.10;;;9.36;69.70;96136.94;4967232;28;20077;-67
2021/04/02 06:28:20;;;;;;;43.38;28.95;;;11.20;69.10;;;9.42;69.60;96133.59;4949783;28;20055;-68
2021/04/02 06:31:09;;;;;;;41.72;27.70;;;11.20;68.80;;;9.48;69.33;96138.09;4951636;28;20458;-69
2021/04/02 06:33:36;;;;;;;46.78;27.67;;;11.40;68.40;;;9.57;69.50;96139.66;4977336;28;20038;-68
2021/04/02 06:36:23;;;;;;;39.75;27.65;;;11.50;68.10;;;9.64;68.34;96137.94;4970849;28;20047;-69
2021/04/02 06:38:51;;;;;;;41.30;27.75;;;11.50;67.30;;;9.67;68.46;96137.56;4966755;28;20066;-69
2021/04/02 06:41:18;;;;;;;44.40;27.95;;;11.50;67.10;;;9.70;68.82;96131.94;4957607;28;20117;-68
2021/04/02 06:43:45;;;;;;;53.22;33.70;;;11.50;66.90;;;9.73;67.62;96139.47;4975540;28;20039;-69
2021/04/02 06:46:14;;;;;;;51.38;29.58;;;11.50;67.30;;;9.77;68.21;96132.84;4954251;28;20046;-67
2021/04/02 06:48:39;;;;;;;42.72;28.13;;;11.60;67.30;;;9.82;67.84;96141.00;4958599;28;20750;-68
2021/04/02 06:51:19;;;;;;;44.70;26.48;;;11.60;67.10;;;9.84;67.86;96140.81;4950520;28;20047;-69
2021/04/02 06:53:50;;;;;;;40.03;25.42;;;11.60;66.60;;;9.86;68.15;96145.88;4971357;28;20114;-66
2021/04/02 06:56:17;;;;;;;35.60;24.20;;;11.60;66.40;;;9.90;66.93;96144.50;4968943;28;20228;-68
2021/04/02 06:58:44;;;;;;;37.40;23.33;;;11.70;66.20;;;9.90;67.56;96140.06;4954311;28;20038;-67
2021/04/02 07:01:13;;;;;;;32.47;21.42;;;11.70;65.50;;;9.90;66.81;96147.94;4956134;28;20379;-67
2021/04/02 07:03:39;;;;;;;28.42;19.95;;;11.60;65.30;;;9.89;66.53;96148.13;4948479;28;20063;-66
2021/04/02 07:06:05;;;;;;;27.88;17.92;;;11.60;64.00;;;9.88;66.73;96138.63;4943252;28;20084;-65
2021/04/02 07:08:32;;;;;;;23.13;17.10;;;11.60;63.10;;;9.91;65.97;96146.13;4975579;28;20081;-66
2021/04/02 07:10:58;;;;;;;40.90;28.33;;;11.70;62.80;;;9.98;66.11;96149.69;4982203;28;20031;-65
2021/04/02 07:13:25;;;;;;;28.60;18.75;;;11.80;63.20;;;10.03;65.32;96137.63;4963770;28;20618;-65
2021/04/02 07:15:51;;;;;;;26.30;18.13;;;11.90;63.50;;;10.08;65.74;96145.75;4955382;28;20350;-66
2021/04/02 07:18:17;;;;;;;25.27;17.30;;;11.90;62.80;;;10.13;65.29;96142.56;4971002;28;20101;-64
2021/04/02 07:20:44;;;;;;;21.30;15.65;;;12.10;61.40;;;10.18;65.13;96140.19;4974135;28;20035;-66
2021/04/02 07:23:09;;;;;;;24.67;16.67;;;12.10;61.20;;;10.24;65.03;96144.75;4960195;28;20057;-67
2021/04/02 07:25:35;;;;;;;23.92;17.02;;;12.10;60.70;;;10.30;64.32;96144.00;4969655;28;20630;-66
2021/04/02 07:28:01;;;;;;;22.98;16.88;;;12.20;60.20;;;10.34;63.79;96134.75;4972532;28;20565;-68
2021/04/02 07:30:27;;;;;;;24.02;15.70;;;12.20;60.30;;;10.38;63.96;96138.63;4964053;28;20108;-68
2021/04/02 07:32:53;;;;;;;24.58;15.73;;;12.40;59.70;;;10.45;63.65;96149.22;4939192;29;20038;-69
2021/04/02 07:35:20;;;;;;;24.02;15.48;;;12.40;59.40;;;10.54;63.89;96144.66;4918198;28;20384;-68
2021/04/02 07:37:54;;;;;;;29.25;17.10;;;12.60;59.40;;;10.66;62.57;96148.44;4947969;28;20090;-68
2021/04/02 07:40:31;;;;;;;26.95;17.27;;;12.70;58.60;;;10.71;62.07;96144.22;4947556;28;20026;-68
2021/04/02 07:43:08;;;;;;;22.23;16.35;;;12.70;58.10;;;10.78;62.07;96152.16;4964624;28;20037;-67
2021/04/02 07:45:35;;;;;;;28.52;17.85;;;12.80;58.10;;;10.84;61.85;96154.03;4947886;28;20047;-67
2021/04/02 07:48:21;;;;;;;32.28;18.63;;;12.80;58.40;;;10.87;62.96;96153.69;4971511;28;20038;-67
2021/04/02 07:51:00;;;;;;;28.95;19.73;;;12.80;59.00;;;10.91;61.74;96156.75;4988331;28;20038;-68
2021/04/02 07:53:26;;;;;;;24.98;19.15;;;12.80;59.10;;;10.98;62.94;96153.16;4948395;28;20041;-68
2021/04/02 07:56:18;;;;;;;32.67;21.05;;;12.90;59.00;;;11.01;62.19;96158.03;4971068;28;20197;-70
2021/04/02 07:58:52;;;;;;;33.13;20.25;;;13.00;58.90;;;11.01;61.18;96163.31;4971699;28;20058;-69
2021/04/02 08:01:23;;;;;;;30.73;21.13;;;13.00;58.90;;;11.08;61.93;96162.53;4960083;28;20085;-70
2021/04/02 08:03:49;;;;;;;31.23;19.80;;;13.00;58.10;;;11.09;62.01;96162.38;4960464;28;20038;-70
2021/04/02 08:06:35;;;;;;;30.08;19.75;;;13.10;57.10;;;11.15;61.00;96171.31;4956696;28;20034;-69
2021/04/02 08:09:03;;;;;;;28.27;18.90;;;13.20;57.00;;;11.15;61.44;96168.69;4967818;28;20055;-69
2021/04/02 08:11:45;;;;;;;26.20;18.30;;;13.10;56.90;;;11.16;61.06;96165.06;4967480;28;20089;-69
2021/04/02 08:14:12;;;;;;;24.85;17.35;;;13.20;57.20;;;11.16;61.18;96176.41;4960198;28;20068;-69
2021/04/02 08:16:54;;;;;;;25.25;17.35;;;13.20;56.90;;;11.20;61.26;96167.09;4970141;28;20121;-69
2021/04/02 08:19:33;;;;;;;25.98;16.33;;;13.20;56.80;;;11.21;59.90;96174.00;4937414;29;20472;-69
2021/04/02 08:22:17;;;;;;;23.15;15.20;;;13.10;56.60;;;11.19;60.70;96177.84;4965784;28;20116;-69
2021/04/02 08:24:45;;;;;;;20.30;15.20;;;13.10;56.30;;;11.17;59.73;96177.22;4967477;28;20062;-69
2021/04/02 08:27:11;;;;;;;22.08;14.60;;;13.00;55.70;;;11.15;60.68;96181.84;4966776;28;20031;-70
2021/04/02 08:29:39;;;;;;;19.77;13.38;;;12.90;55.60;;;11.13;59.41;96181.22;4983342;28;20093;-69
2021/04/02 08:32:07;;;;;;;16.63;12.63;;;12.90;55.80;;;11.13;59.80;96181.22;4943404;29;20039;-69
2021/04/02 08:34:35;;;;;;;20.13;14.07;;;12.90;54.90;;;11.14;58.52;96185.50;4955615;28;20043;-69
2021/04/02 08:37:03;;;;;;;17.00;12.18;;;13.00;54.20;;;11.15;58.86;96184.50;4977950;28;20055;-69
2021/04/02 08:39:29;;;;;;;19.75;14.32;;;13.10;54.10;;;11.11;58.38;96184.06;4955038;28;20590;-69
2021/04/02 08:42:04;;;;;;;20.05;14.02;;;13.00;53.20;;;11.02;57.58;96177.28;4969729;28;20035;-69
2021/04/02 08:44:36;;;;;;;14.60;11.13;;;12.90;52.50;;;10.99;58.09;96191.63;4949046;28;20042;-69
2021/04/02 08:47:16;;;;;;;15.10;11.27;;;12.80;52.60;;;10.98;57.31;96183.94;4966387;28;20498;-70
2021/04/02 08:49:51;;;;;;;16.17;11.15;;;12.70;52.90;;;10.96;57.75;96181.50;4958032;28;20462;-70
2021/04/02 08:52:28;;;;;;;19.25;11.80;;;12.80;53.30;;;11.01;56.76;96180.91;4937151;28;20073;-68
2021/04/02 08:55:02;;;;;;;16.90;12.52;;;13.00;53.30;;;11.05;57.48;96180.34;4969899;28;20797;-66
2021/04/02 08:57:30;;;;;;;19.08;11.30;;;13.00;52.90;;;11.09;57.31;96179.97;4970190;28;20035;-69
2021/04/02 08:59:56;;;;;;;14.93;10.52;;;13.10;53.20;;;11.12;57.56;96180.41;4947842;28;20035;-67
2021/04/02 09:02:25;;;;;;;14.60;10.82;;;13.10;52.70;;;11.19;57.20;96175.19;4964893;28;20069;-68
2021/04/02 09:04:51;;;;;;;15.20;11.95;;;13.20;52.90;;;11.27;57.05;96167.16;4972656;28;20377;-67
2021/04/02 09:07:17;;;;;;;22.58;15.80;;;13.30;52.80;;;11.33;57.25;96167.22;4950726;28;20074;-67
2021/04/02 09:09:45;;;;;;;18.88;13.27;;;13.40;52.40;;;11.40;57.72;96172.53;4973202;28;20027;-68
2021/04/02 09:12:20;;;;;;;17.73;12.68;;;13.50;52.80;;;11.47;57.23;96177.81;4966724;28;20027;-67
2021/04/02 09:14:51;;;;;;;18.05;13.60;;;13.60;52.80;;;11.52;57.16;96172.78;4984565;28;20516;-69
2021/04/02 09:17:24;;;;;;;19.98;15.20;;;13.70;51.40;;;11.63;57.17;96167.81;4968383;28;20031;-68
2021/04/02 09:19:50;;;;;;;17.38;12.45;;;13.80;51.70;;;11.78;56.96;96166.88;4946652;28;20126;-68
2021/04/02 09:22:16;;;;;;;18.55;13.50;;;14.10;51.40;;;12.05;57.27;96165.22;4938016;28;20106;-67
2021/04/02 09:24:42;;;;;;;17.92;11.32;;;14.90;49.10;;;12.66;56.71;96166.00;4935600;28;20603;-68
2021/04/02 09:27:13;;;;;;;15.57;11.35;;;16.10;46.20;;;13.44;54.75;96155.72;4936449;28;20499;-67
2021/04/02 09:29:42;;;;;;;15.18;11.43;;;17.20;44.20;;;13.96;53.02;96153.97;4976070;28;20671;-69
2021/04/02 09:32:08;;;;;;;18.00;11.80;;;17.70;41.90;;;14.44;54.80;96153.59;4970477;28;20042;-69
2021/04/02 09:34:34;;;;;;;16.35;12.65;;;18.10;40.70;;;14.80;53.53;96150.34;4971519;28;20086;-68
2021/04/02 09:37:00;;;;;;;16.45;11.80;;;18.40;40.10;;;15.26;54.08;96142.06;4970072;28;20209;-68
2021/04/02 09:39:27;;;;;;;27.45;18.85;;;18.90;39.60;;;15.88;51.75;96143.72;4985797;28;20085;-69
2021/04/02 09:42:01;;;;;;;17.48;12.48;;;19.80;37.90;;;16.43;47.18;96135.72;4953502;28;20038;-68
2021/04/02 09:44:33;;;;;;;15.50;11.88;;;20.50;36.10;;;16.91;47.49;96137.50;4955955;28;20046;-68
2021/04/02 09:47:12;;;;;;;14.20;10.35;;;20.60;35.30;;;17.37;44.74;96130.66;4970252;28;20038;-69
2021/04/02 09:49:38;;;;;;;15.60;12.20;;;21.10;33.80;;;17.44;48.24;96126.84;4973058;28;20438;-67
2021/04/02 09:52:05;;;;;;;14.23;10.60;;;20.70;33.80;;;17.47;47.15;96120.25;4971838;28;20031;-69
2021/04/02 09:54:31;;;;;;;16.60;12.02;;;20.80;34.10;;;17.66;47.12;96124.41;4957650;28;20032;-67
2021/04/02 09:57:07;;;;;;;14.05;11.65;;;20.90;34.10;;;17.86;43.56;96129.38;4976894;28;20053;-69
2021/04/02 09:59:33;;;;;;;15.93;12.50;;;20.80;34.00;;;17.84;45.54;96120.81;4974645;28;20034;-67
2021/04/02 10:01:59;;;;;;;17.42;13.13;;;20.20;34.60;;;18.04;45.46;96125.75;4952292;28;20573;-67
2021/04/02 10:04:28;;;;;;;16.80;11.90;;;20.70;34.70;;;18.31;45.05;96113.53;4950772;29;20063;-66
2021/04/02 10:06:53;;;;;;;14.10;11.52;;;20.90;33.80;;;18.84;44.62;96117.75;4979127;28;20038;-71
2021/04/02 10:09:19;;;;;;;16.73;12.02;;;22.30;32.70;;;19.25;44.16;96105.09;4956764;28;20121;-69
2021/04/02 10:11:47;;;;;;;17.95;12.38;;;21.80;32.40;;;19.48;44.28;96110.25;4955406;28;20383;-70
2021/04/02 10:14:13;;;;;;;20.30;16.25;;;22.00;33.30;;;19.76;44.10;96111.19;4954763;28;20139;-70
2021/04/02 10:16:39;;;;;;;20.70;12.82;;;22.70;32.10;;;20.40;42.25;96098.09;4950192;28;20232;-70
2021/04/02 10:19:05;;;;;;;20.85;13.55;;;23.20;30.90;;;21.20;42.47;96094.56;4964910;28;20093;-70